createdAt,value
2019-05-03T00:00:39.577Z,0.00
2019-05-03T00:01:39.578Z,0.00
2019-05-03T00:02:41.601Z,0.00
2019-05-03T00:03:39.582Z,0.00
2019-05-03T00:04:39.580Z,0.00
2019-05-03T00:05:39.582Z,0.00
2019-05-03T00:06:39.588Z,0.00
2019-05-03T00:07:39.584Z,0.00
2019-05-03T00:08:41.413Z,0.00
2019-05-03T00:09:39.587Z,0.00
2019-05-03T00:10:39.586Z,0.00
2019-05-03T00:11:39.588Z,0.00
2019-05-03T00:12:39.590Z,0.00
2019-05-03T00:13:39.594Z,0.00
2019-05-03T00:14:41.605Z,0.00
2019-05-03T00:15:39.595Z,0.00
2019-05-03T00:16:41.586Z,0.00
2019-05-03T00:17:39.595Z,0.00
2019-05-03T00:18:39.600Z,0.00
2019-05-03T00:19:39.599Z,0.00
2019-05-03T00:20:39.606Z,0.00
2019-05-03T00:21:39.609Z,0.00
2019-05-03T00:22:39.602Z,0.00
2019-05-03T00:23:41.634Z,0.00
2019-05-03T00:24:39.603Z,0.00
2019-05-03T00:25:39.604Z,0.00
2019-05-03T00:26:39.606Z,0.00
2019-05-03T00:27:39.607Z,0.00
2019-05-03T00:28:39.614Z,0.00
2019-05-03T00:29:41.434Z,0.00
2019-05-03T00:30:39.610Z,0.00
2019-05-03T00:31:39.611Z,0.00
2019-05-03T00:32:39.612Z,0.00
2019-05-03T00:33:39.613Z,0.00
2019-05-03T00:34:41.700Z,0.00
2019-05-03T00:35:39.615Z,0.00
2019-05-03T00:36:39.620Z,0.00
2019-05-03T00:37:39.622Z,0.00
2019-05-03T00:38:39.622Z,0.00
2019-05-03T00:39:41.728Z,0.00
2019-05-03T00:40:41.605Z,0.00
2019-05-03T00:41:39.628Z,0.00
2019-05-03T00:42:39.622Z,0.00
2019-05-03T00:43:39.629Z,0.00
2019-05-03T00:44:39.626Z,0.00
2019-05-03T00:45:39.626Z,0.00
2019-05-03T00:46:39.631Z,0.00
2019-05-03T00:47:39.630Z,0.00
2019-05-03T00:48:39.631Z,0.00
2019-05-03T00:49:39.634Z,0.00
2019-05-03T00:50:39.632Z,0.00
2019-05-03T00:51:39.633Z,0.00
2019-05-03T00:52:39.635Z,0.00
2019-05-03T00:53:39.643Z,0.00
2019-05-03T00:54:39.637Z,0.00
2019-05-03T00:55:39.640Z,0.00
2019-05-03T00:56:42.636Z,0.00
2019-05-03T00:57:41.496Z,0.00
2019-05-03T00:58:39.640Z,0.00
2019-05-03T00:59:39.643Z,0.00
2019-05-03T01:00:41.645Z,0.00
2019-05-03T01:01:39.643Z,0.00
2019-05-03T01:02:39.644Z,0.00
2019-05-03T01:03:39.647Z,0.00
2019-05-03T01:04:39.648Z,0.00
2019-05-03T01:05:39.647Z,0.00
2019-05-03T01:06:39.653Z,0.00
2019-05-03T01:07:39.649Z,0.00
2019-05-03T01:08:39.652Z,0.00
2019-05-03T01:09:39.652Z,0.00
2019-05-03T01:10:39.659Z,0.00
2019-05-03T01:11:41.718Z,0.00
2019-05-03T01:12:41.535Z,0.00
2019-05-03T01:13:39.664Z,0.00
2019-05-03T01:14:39.661Z,0.00
2019-05-03T01:15:39.659Z,0.00
2019-05-03T01:16:39.673Z,0.00
2019-05-03T01:17:39.660Z,0.00
2019-05-03T01:18:41.270Z,0.00
2019-05-03T01:19:39.672Z,0.00
2019-05-03T01:20:39.662Z,0.00
2019-05-03T01:21:39.663Z,0.00
2019-05-03T01:22:39.664Z,0.00
2019-05-03T01:23:39.666Z,0.00
2019-05-03T01:24:39.668Z,0.00
2019-05-03T01:25:39.669Z,0.00
2019-05-03T01:26:39.672Z,0.00
2019-05-03T01:27:39.670Z,0.00
2019-05-03T01:28:39.671Z,0.00
2019-05-03T01:29:39.678Z,0.00
2019-05-03T01:30:39.676Z,0.00
2019-05-03T01:31:39.677Z,0.00
2019-05-03T01:32:41.714Z,0.00
2019-05-03T01:33:39.677Z,0.00
2019-05-03T01:34:41.514Z,0.00
2019-05-03T01:35:39.678Z,0.00
2019-05-03T01:36:39.682Z,0.00
2019-05-03T01:37:39.679Z,0.00
2019-05-03T01:38:39.683Z,0.00
2019-05-03T01:39:39.683Z,0.00
2019-05-03T01:40:41.778Z,0.00
2019-05-03T01:41:41.592Z,0.00
2019-05-03T01:42:39.687Z,0.00
2019-05-03T01:43:41.508Z,0.00
2019-05-03T01:44:39.689Z,0.00
2019-05-03T01:45:39.693Z,0.00
2019-05-03T01:46:39.693Z,0.00
2019-05-03T01:47:39.700Z,0.00
2019-05-03T01:48:41.520Z,0.00
2019-05-03T01:49:39.693Z,0.00
2019-05-03T01:50:39.694Z,0.00
2019-05-03T01:51:39.695Z,0.00
2019-05-03T01:52:39.702Z,0.00
2019-05-03T01:53:41.572Z,0.00
2019-05-03T01:54:39.699Z,0.00
2019-05-03T01:55:44.461Z,0.00
2019-05-03T01:56:39.701Z,0.00
2019-05-03T01:57:39.701Z,0.00
2019-05-03T01:58:41.623Z,0.00
2019-05-03T01:59:39.715Z,0.00
2019-05-03T02:00:39.705Z,0.00
2019-05-03T02:01:39.710Z,0.00
2019-05-03T02:02:41.840Z,0.00
2019-05-03T02:03:41.709Z,0.00
2019-05-03T02:04:41.641Z,0.00
2019-05-03T02:05:39.711Z,0.00
2019-05-03T02:06:39.710Z,0.00
2019-05-03T02:07:39.711Z,0.00
2019-05-03T02:08:41.688Z,0.00
2019-05-03T02:09:41.575Z,0.00
2019-05-03T02:10:39.714Z,0.00
2019-05-03T02:11:39.718Z,0.00
2019-05-03T02:12:41.649Z,0.00
2019-05-03T02:13:39.719Z,0.00
2019-05-03T02:14:39.721Z,0.00
2019-05-03T02:15:39.732Z,0.00
2019-05-03T02:16:41.861Z,0.00
2019-05-03T02:17:39.721Z,0.00
2019-05-03T02:18:39.723Z,0.00
2019-05-03T02:19:39.726Z,0.00
2019-05-03T02:20:41.705Z,0.00
2019-05-03T02:21:41.574Z,0.00
2019-05-03T02:22:39.727Z,0.00
2019-05-03T02:23:39.729Z,0.00
2019-05-03T02:24:39.730Z,0.00
2019-05-03T02:25:41.712Z,0.00
2019-05-03T02:26:39.733Z,0.00
2019-05-03T02:27:39.731Z,0.00
2019-05-03T02:28:39.732Z,0.00
2019-05-03T02:29:41.732Z,0.00
2019-05-03T02:30:39.735Z,0.00
2019-05-03T02:31:39.740Z,0.00
2019-05-03T02:32:39.740Z,0.00
2019-05-03T02:33:39.736Z,0.00
2019-05-03T02:34:39.746Z,0.00
2019-05-03T02:35:42.712Z,0.00
2019-05-03T02:36:42.536Z,0.00
2019-05-03T02:37:39.752Z,0.00
2019-05-03T02:38:39.744Z,0.00
2019-05-03T02:39:42.498Z,0.00
2019-05-03T02:40:42.595Z,0.00
2019-05-03T02:41:39.745Z,0.00
2019-05-03T02:42:39.758Z,0.00
2019-05-03T02:43:39.749Z,0.00
2019-05-03T02:44:39.750Z,0.00
2019-05-03T02:45:39.749Z,0.00
2019-05-03T02:46:39.754Z,0.00
2019-05-03T02:47:39.753Z,0.00
2019-05-03T02:48:39.757Z,0.00
2019-05-03T02:49:39.752Z,0.00
2019-05-03T02:50:39.757Z,0.00
2019-05-03T02:51:39.756Z,0.00
2019-05-03T02:52:39.759Z,0.00
2019-05-03T02:53:39.767Z,0.00
2019-05-03T02:54:39.762Z,0.00
2019-05-03T02:55:39.759Z,0.00
2019-05-03T02:56:39.772Z,0.00
2019-05-03T02:57:39.762Z,0.00
2019-05-03T02:58:39.761Z,0.00
2019-05-03T02:59:39.763Z,0.00
2019-05-03T03:00:39.765Z,0.00
2019-05-03T03:01:39.765Z,0.00
2019-05-03T03:02:39.768Z,0.00
2019-05-03T03:03:39.766Z,0.00
2019-05-03T03:04:39.771Z,0.00
2019-05-03T03:05:39.767Z,0.00
2019-05-03T03:06:39.771Z,0.00
2019-05-03T03:07:39.773Z,0.00
2019-05-03T03:08:39.774Z,0.00
2019-05-03T03:09:39.779Z,0.00
2019-05-03T03:10:39.776Z,0.00
2019-05-03T03:11:39.779Z,0.00
2019-05-03T03:12:39.780Z,0.00
2019-05-03T03:13:39.776Z,0.00
2019-05-03T03:14:39.775Z,0.00
2019-05-03T03:15:39.777Z,0.00
2019-05-03T03:16:39.780Z,0.00
2019-05-03T03:17:39.786Z,0.00
2019-05-03T03:18:39.787Z,0.00
2019-05-03T03:19:39.781Z,0.00
2019-05-03T03:20:39.787Z,0.00
2019-05-03T03:21:39.782Z,0.00
2019-05-03T03:22:39.785Z,0.00
2019-05-03T03:23:39.786Z,0.00
2019-05-03T03:24:39.789Z,0.00
2019-05-03T03:25:39.796Z,0.00
2019-05-03T03:26:43.159Z,0.00
2019-05-03T03:27:39.788Z,0.00
2019-05-03T03:28:39.797Z,0.00
2019-05-03T03:29:39.790Z,0.00
2019-05-03T03:30:39.792Z,0.00
2019-05-03T03:31:39.794Z,0.00
2019-05-03T03:32:39.797Z,0.00
2019-05-03T03:33:40.598Z,0.00
2019-05-03T03:34:39.796Z,0.00
2019-05-03T03:35:39.811Z,0.00
2019-05-03T03:36:54.422Z,0.00
2019-05-03T03:37:39.798Z,0.00
2019-05-03T03:38:39.801Z,0.00
2019-05-03T03:39:39.809Z,0.00
2019-05-03T03:40:39.804Z,0.00
2019-05-03T03:41:39.808Z,0.00
2019-05-03T03:42:39.804Z,0.00
2019-05-03T03:43:39.809Z,0.00
2019-05-03T03:44:39.806Z,0.00
2019-05-03T03:45:39.809Z,0.00
2019-05-03T03:46:39.809Z,0.00
2019-05-03T03:47:39.809Z,0.00
2019-05-03T03:48:39.811Z,0.00
2019-05-03T03:49:39.809Z,0.00
2019-05-03T03:50:39.816Z,0.00
2019-05-03T03:51:39.817Z,0.00
2019-05-03T03:52:39.814Z,0.00
2019-05-03T03:53:39.823Z,0.00
2019-05-03T03:54:39.815Z,0.00
2019-05-03T03:55:39.826Z,0.00
2019-05-03T03:56:54.525Z,0.00
2019-05-03T03:57:39.824Z,0.00
2019-05-03T03:58:39.820Z,0.00
2019-05-03T03:59:39.819Z,0.00
2019-05-03T04:00:39.822Z,0.00
2019-05-03T04:01:39.822Z,0.00
2019-05-03T04:02:39.823Z,0.00
2019-05-03T04:03:39.829Z,0.00
2019-05-03T04:04:39.826Z,0.00
2019-05-03T04:05:39.830Z,0.00
2019-05-03T04:06:39.827Z,0.00
2019-05-03T04:07:39.830Z,0.00
2019-05-03T04:08:39.838Z,0.00
2019-05-03T04:09:39.838Z,0.00
2019-05-03T04:10:39.832Z,0.00
2019-05-03T04:11:39.833Z,0.00
2019-05-03T04:12:39.833Z,0.00
2019-05-03T04:13:39.836Z,0.00
2019-05-03T04:14:39.834Z,0.00
2019-05-03T04:15:39.836Z,0.00
2019-05-03T04:16:39.837Z,0.00
2019-05-03T04:17:39.842Z,0.00
2019-05-03T04:18:39.845Z,0.00
2019-05-03T04:19:39.847Z,0.00
2019-05-03T04:20:39.841Z,0.00
2019-05-03T04:21:39.843Z,0.00
2019-05-03T04:22:39.846Z,0.00
2019-05-03T04:23:39.844Z,0.00
2019-05-03T04:24:39.845Z,0.00
2019-05-03T04:25:39.854Z,0.00
2019-05-03T04:26:39.846Z,0.00
2019-05-03T04:27:39.849Z,0.00
2019-05-03T04:28:39.865Z,0.00
2019-05-03T04:29:39.901Z,0.00
2019-05-03T04:30:39.865Z,0.00
2019-05-03T04:31:39.855Z,0.00
2019-05-03T04:32:39.857Z,0.00
2019-05-03T04:33:39.861Z,0.00
2019-05-03T04:34:39.855Z,0.00
2019-05-03T04:35:39.858Z,0.00
2019-05-03T04:36:39.858Z,0.00
2019-05-03T04:37:39.859Z,0.00
2019-05-03T04:38:39.860Z,0.00
2019-05-03T04:39:39.862Z,0.00
2019-05-03T04:40:39.864Z,0.00
2019-05-03T04:41:39.863Z,0.00
2019-05-03T04:42:39.873Z,0.00
2019-05-03T04:43:39.865Z,0.00
2019-05-03T04:44:39.874Z,0.00
2019-05-03T04:45:39.868Z,0.00
2019-05-03T04:46:39.876Z,0.00
2019-05-03T04:47:39.871Z,0.00
2019-05-03T04:48:39.872Z,0.00
2019-05-03T04:49:39.871Z,0.00
2019-05-03T04:50:39.888Z,0.00
2019-05-03T04:51:39.872Z,0.00
2019-05-03T04:52:39.876Z,0.00
2019-05-03T04:53:39.888Z,0.00
2019-05-03T04:54:39.877Z,0.00
2019-05-03T04:55:39.877Z,0.00
2019-05-03T04:56:39.879Z,0.00
2019-05-03T04:57:45.503Z,0.00
2019-05-03T04:58:39.884Z,0.00
2019-05-03T04:59:39.881Z,0.00
2019-05-03T05:00:39.882Z,0.00
2019-05-03T05:01:39.883Z,0.00
2019-05-03T05:02:39.889Z,0.00
2019-05-03T05:03:39.885Z,0.00
2019-05-03T05:04:39.887Z,0.00
2019-05-03T05:05:39.888Z,0.00
2019-05-03T05:06:39.887Z,0.00
2019-05-03T05:07:39.890Z,0.00
2019-05-03T05:08:39.892Z,0.00
2019-05-03T05:09:39.894Z,0.00
2019-05-03T05:10:39.899Z,0.00
2019-05-03T05:11:39.895Z,0.00
2019-05-03T05:12:39.897Z,0.00
2019-05-03T05:13:39.899Z,0.00
2019-05-03T05:14:39.901Z,0.00
2019-05-03T05:15:39.916Z,0.00
2019-05-03T05:16:39.972Z,0.00
2019-05-03T05:17:39.906Z,0.00
2019-05-03T05:18:39.906Z,0.00
2019-05-03T05:19:39.911Z,0.00
2019-05-03T05:20:39.917Z,0.00
2019-05-03T05:21:39.910Z,0.00
2019-05-03T05:22:39.913Z,0.00
2019-05-03T05:23:39.913Z,0.00
2019-05-03T05:24:39.915Z,0.00
2019-05-03T05:25:39.919Z,0.00
2019-05-03T05:26:39.921Z,0.00
2019-05-03T05:27:48.679Z,0.00
2019-05-03T05:28:39.924Z,0.00
2019-05-03T05:29:39.923Z,0.00
2019-05-03T05:30:39.923Z,0.00
2019-05-03T05:31:39.927Z,0.00
2019-05-03T05:32:39.928Z,0.00
2019-05-03T05:33:39.940Z,0.00
2019-05-03T05:34:39.932Z,0.00
2019-05-03T05:35:39.936Z,0.00
2019-05-03T05:36:39.943Z,0.00
2019-05-03T05:37:39.941Z,0.00
2019-05-03T05:38:39.983Z,0.00
2019-05-03T05:39:39.942Z,0.00
2019-05-03T05:40:39.942Z,0.00
2019-05-03T05:41:39.944Z,0.00
2019-05-03T05:42:39.946Z,0.00
2019-05-03T05:43:39.947Z,0.00
2019-05-03T05:44:39.952Z,0.00
2019-05-03T05:45:39.953Z,0.00
2019-05-03T05:46:39.955Z,0.00
2019-05-03T05:47:39.955Z,0.00
2019-05-03T05:48:39.958Z,0.00
2019-05-03T05:49:39.960Z,0.00
2019-05-03T05:50:39.963Z,0.00
2019-05-03T05:51:39.965Z,0.00
2019-05-03T05:52:39.975Z,0.00
2019-05-03T05:53:39.976Z,0.00
2019-05-03T05:54:39.977Z,0.00
2019-05-03T05:55:39.982Z,0.00
2019-05-03T06:07:44.312Z,5.63
2019-05-03T06:09:36.848Z,5.63
2019-05-03T06:10:36.842Z,5.63
2019-05-03T06:12:31.488Z,5.63
2019-05-03T06:13:31.457Z,5.63
2019-05-03T06:15:26.729Z,5.63
2019-05-03T06:16:24.645Z,5.63
2019-05-03T06:18:17.696Z,5.63
2019-05-03T06:19:17.692Z,5.63
2019-05-03T06:21:12.322Z,5.63
2019-05-03T06:22:12.315Z,5.63
2019-05-03T06:24:06.006Z,5.63
2019-05-03T06:25:06.711Z,5.63
2019-05-03T06:27:00.055Z,5.63
2019-05-03T06:28:00.048Z,5.63
2019-05-03T06:29:54.565Z,5.63
2019-05-03T06:30:54.495Z,5.63
2019-05-03T06:32:46.302Z,5.63
2019-05-03T06:33:46.290Z,5.63
2019-05-03T06:35:39.443Z,5.63
2019-05-03T06:36:39.410Z,5.63
2019-05-03T06:38:34.431Z,5.63
2019-05-03T06:39:35.119Z,5.63
2019-05-03T06:41:26.173Z,5.63
2019-05-03T06:42:26.141Z,5.63
2019-05-03T06:44:27.014Z,5.63
2019-05-03T06:45:20.770Z,11.25
2019-05-03T06:47:14.874Z,11.25
2019-05-03T06:48:17.162Z,5.63
2019-05-03T06:50:07.021Z,5.63
2019-05-03T06:51:10.972Z,5.63
2019-05-03T06:53:05.896Z,5.63
2019-05-03T06:54:00.132Z,5.63
2019-05-03T06:55:55.297Z,11.25
2019-05-03T06:56:55.333Z,11.25
2019-05-03T06:58:46.419Z,11.25
2019-05-03T06:59:46.367Z,11.25
2019-05-03T07:01:39.491Z,5.63
2019-05-03T07:02:39.501Z,5.63
2019-05-03T07:04:34.608Z,5.63
2019-05-03T07:05:32.608Z,11.25
2019-05-03T07:07:35.306Z,11.25
2019-05-03T07:08:34.463Z,11.25
2019-05-03T07:10:26.369Z,11.25
2019-05-03T07:11:26.394Z,11.25
2019-05-03T07:13:25.447Z,5.63
2019-05-03T07:14:24.742Z,5.63
2019-05-03T07:15:25.198Z,5.63
2019-05-03T07:16:25.324Z,5.63
2019-05-03T07:17:24.843Z,11.25
2019-05-03T07:18:24.771Z,11.25
2019-05-03T07:19:24.992Z,11.25
2019-05-03T07:20:25.509Z,11.25
2019-05-03T07:21:24.707Z,16.88
2019-05-03T07:22:24.558Z,16.88
2019-05-03T07:23:24.613Z,16.88
2019-05-03T07:24:24.918Z,16.88
2019-05-03T07:25:25.559Z,16.88
2019-05-03T07:26:25.365Z,11.25
2019-05-03T07:27:24.877Z,11.25
2019-05-03T07:28:24.846Z,11.25
2019-05-03T07:29:25.542Z,11.25
2019-05-03T07:30:24.878Z,5.63
2019-05-03T07:31:25.535Z,5.63
2019-05-03T07:32:24.804Z,11.25
2019-05-03T07:33:25.425Z,11.25
2019-05-03T07:34:24.820Z,5.63
2019-05-03T07:35:25.169Z,5.63
2019-05-03T07:36:28.062Z,11.25
2019-05-03T07:37:24.661Z,11.25
2019-05-03T07:38:24.908Z,11.25
2019-05-03T07:39:24.633Z,11.25
2019-05-03T07:40:25.246Z,16.88
2019-05-03T07:41:27.013Z,16.88
2019-05-03T07:42:25.650Z,16.88
2019-05-03T07:43:24.636Z,22.50
2019-05-03T07:44:25.489Z,22.50
2019-05-03T07:45:25.443Z,22.50
2019-05-03T07:46:24.831Z,28.13
2019-05-03T07:47:24.757Z,28.13
2019-05-03T07:48:25.422Z,28.13
2019-05-03T07:49:24.964Z,28.13
2019-05-03T07:50:25.876Z,28.13
2019-05-03T07:51:24.932Z,28.13
2019-05-03T07:52:25.871Z,33.75
2019-05-03T07:53:25.248Z,33.75
2019-05-03T07:54:24.905Z,39.38
2019-05-03T07:55:24.941Z,39.38
2019-05-03T07:56:25.474Z,39.38
2019-05-03T07:57:25.474Z,39.38
2019-05-03T07:58:25.260Z,39.38
2019-05-03T07:59:25.124Z,45.00
2019-05-03T08:00:25.330Z,50.63
2019-05-03T08:01:25.179Z,50.63
2019-05-03T08:02:27.242Z,50.63
2019-05-03T08:03:24.578Z,50.63
2019-05-03T08:04:25.508Z,50.63
2019-05-03T08:05:24.734Z,45.00
2019-05-03T08:06:24.805Z,45.00
2019-05-03T08:07:25.699Z,45.00
2019-05-03T08:08:25.033Z,50.63
2019-05-03T08:09:24.733Z,50.63
2019-05-03T08:10:25.628Z,45.00
2019-05-03T08:11:24.973Z,45.00
2019-05-03T08:12:24.738Z,45.00
2019-05-03T08:13:25.318Z,45.00
2019-05-03T08:14:25.245Z,45.00
2019-05-03T08:15:24.667Z,45.00
2019-05-03T08:16:25.275Z,45.00
2019-05-03T08:17:25.605Z,45.00
2019-05-03T08:18:25.705Z,45.00
2019-05-03T08:19:27.005Z,45.00
2019-05-03T08:20:24.895Z,45.00
2019-05-03T08:21:25.284Z,45.00
2019-05-03T08:22:25.614Z,45.00
2019-05-03T08:23:29.867Z,45.00
2019-05-03T08:24:25.334Z,45.00
2019-05-03T08:25:24.965Z,45.00
2019-05-03T08:26:25.648Z,39.38
2019-05-03T08:27:25.170Z,39.38
2019-05-03T08:28:24.719Z,33.75
2019-05-03T08:29:24.962Z,33.75
2019-05-03T08:30:25.081Z,28.13
2019-05-03T08:31:26.521Z,22.50
2019-05-03T08:32:24.665Z,22.50
2019-05-03T08:33:24.985Z,22.50
2019-05-03T08:34:25.739Z,16.88
2019-05-03T08:35:24.667Z,16.88
2019-05-03T08:36:24.840Z,16.88
2019-05-03T08:37:24.671Z,16.88
2019-05-03T08:38:25.724Z,16.88
2019-05-03T08:39:25.171Z,16.88
2019-05-03T08:40:24.705Z,16.88
2019-05-03T08:41:24.757Z,16.88
2019-05-03T08:42:25.446Z,16.88
2019-05-03T08:43:25.514Z,16.88
2019-05-03T08:44:25.025Z,16.88
2019-05-03T08:45:25.609Z,22.50
2019-05-03T08:46:25.383Z,22.50
2019-05-03T08:47:24.881Z,22.50
2019-05-03T08:48:25.001Z,28.13
2019-05-03T08:49:25.521Z,33.75
2019-05-03T08:50:25.696Z,33.75
2019-05-03T08:51:25.114Z,33.75
2019-05-03T08:52:24.890Z,33.75
2019-05-03T08:53:25.657Z,33.75
2019-05-03T08:54:25.582Z,33.75
2019-05-03T08:55:25.051Z,33.75
2019-05-03T08:56:24.740Z,33.75
2019-05-03T08:57:25.336Z,33.75
2019-05-03T08:58:25.640Z,33.75
2019-05-03T08:59:29.839Z,39.38
2019-05-03T09:00:24.976Z,39.38
2019-05-03T09:01:25.182Z,45.00
2019-05-03T09:02:25.806Z,50.63
2019-05-03T09:03:25.043Z,45.00
2019-05-03T09:04:35.988Z,45.00
2019-05-03T09:05:25.049Z,50.63
2019-05-03T09:06:24.883Z,45.00
2019-05-03T09:07:25.362Z,28.13
2019-05-03T09:08:24.985Z,22.50
2019-05-03T09:09:25.452Z,22.50
2019-05-03T09:10:24.985Z,16.88
2019-05-03T09:11:33.321Z,22.50
2019-05-03T09:12:25.227Z,22.50
2019-05-03T09:13:25.149Z,33.75
2019-05-03T09:14:32.689Z,39.38
2019-05-03T09:15:24.764Z,50.63
2019-05-03T09:16:25.187Z,56.25
2019-05-03T09:17:24.824Z,45.00
2019-05-03T09:18:25.781Z,39.38
2019-05-03T09:19:25.310Z,39.38
2019-05-03T09:20:25.065Z,39.38
2019-05-03T09:21:25.502Z,28.13
2019-05-03T09:22:25.574Z,22.50
2019-05-03T09:23:25.967Z,28.13
2019-05-03T09:24:24.797Z,33.75
2019-05-03T09:25:24.846Z,33.75
2019-05-03T09:26:29.006Z,28.13
2019-05-03T09:27:24.874Z,22.50
2019-05-03T09:28:26.463Z,16.88
2019-05-03T09:29:25.527Z,16.88
2019-05-03T09:30:25.170Z,22.50
2019-05-03T09:31:24.885Z,28.13
2019-05-03T09:32:25.678Z,39.38
2019-05-03T09:33:24.998Z,45.00
2019-05-03T09:34:25.678Z,50.63
2019-05-03T09:35:30.500Z,56.25
2019-05-03T09:36:25.327Z,50.63
2019-05-03T09:37:25.091Z,50.63
2019-05-03T09:38:25.641Z,45.00
2019-05-03T09:39:24.835Z,39.38
2019-05-03T09:40:24.842Z,28.13
2019-05-03T09:41:25.659Z,22.50
2019-05-03T09:42:24.921Z,22.50
2019-05-03T09:43:25.186Z,22.50
2019-05-03T09:44:24.848Z,33.75
2019-05-03T09:45:24.853Z,33.75
2019-05-03T09:46:26.472Z,33.75
2019-05-03T09:47:25.205Z,28.13
2019-05-03T09:48:25.481Z,33.75
2019-05-03T09:49:25.331Z,33.75
2019-05-03T09:50:24.875Z,28.13
2019-05-03T09:51:25.578Z,33.75
2019-05-03T09:52:25.185Z,39.38
2019-05-03T09:53:25.634Z,45.00
2019-05-03T09:54:25.496Z,45.00
2019-05-03T09:55:25.344Z,39.38
2019-05-03T09:56:25.919Z,28.13
2019-05-03T09:57:24.917Z,22.50
2019-05-03T09:58:26.371Z,22.50
2019-05-03T09:59:25.507Z,33.75
2019-05-03T10:00:24.900Z,39.38
2019-05-03T10:01:25.591Z,50.63
2019-05-03T10:02:24.902Z,50.63
2019-05-03T10:03:24.904Z,56.25
2019-05-03T10:04:25.572Z,50.63
2019-05-03T10:05:25.541Z,45.00
2019-05-03T10:06:25.141Z,50.63
2019-05-03T10:07:25.810Z,56.25
2019-05-03T10:08:25.449Z,56.25
2019-05-03T10:09:26.048Z,50.63
2019-05-03T10:10:24.931Z,39.38
2019-05-03T10:11:25.447Z,33.75
2019-05-03T10:12:25.469Z,28.13
2019-05-03T10:13:26.919Z,28.13
2019-05-03T10:14:24.936Z,33.75
2019-05-03T10:15:26.043Z,45.00
2019-05-03T10:16:24.954Z,56.25
2019-05-03T10:17:25.295Z,67.50
2019-05-03T10:18:25.456Z,67.50
2019-05-03T10:19:37.119Z,61.88
2019-05-03T10:20:25.293Z,56.25
2019-05-03T10:21:25.795Z,45.00
2019-05-03T10:22:25.265Z,39.38
2019-05-03T10:23:24.965Z,33.75
2019-05-03T10:24:24.969Z,28.13
2019-05-03T10:25:24.971Z,28.13
2019-05-03T10:26:24.974Z,33.75
2019-05-03T10:27:25.233Z,33.75
2019-05-03T10:28:25.192Z,39.38
2019-05-03T10:29:25.155Z,50.63
2019-05-03T10:30:24.989Z,56.25
2019-05-03T10:31:25.244Z,61.88
2019-05-03T10:32:25.364Z,61.88
2019-05-03T10:33:25.981Z,61.88
2019-05-03T10:34:25.001Z,61.88
2019-05-03T10:35:25.004Z,50.63
2019-05-03T10:36:25.118Z,45.00
2019-05-03T10:37:25.016Z,39.38
2019-05-03T10:38:25.020Z,39.38
2019-05-03T10:39:26.257Z,39.38
2019-05-03T10:40:25.024Z,33.75
2019-05-03T10:41:25.192Z,28.13
2019-05-03T10:42:25.030Z,22.50
2019-05-03T10:43:25.037Z,16.88
2019-05-03T10:44:25.035Z,16.88
2019-05-03T10:45:27.850Z,16.88
2019-05-03T10:46:25.198Z,16.88
2019-05-03T10:47:25.471Z,16.88
2019-05-03T10:48:25.184Z,16.88
2019-05-03T10:49:25.064Z,16.88
2019-05-03T10:50:25.361Z,16.88
2019-05-03T10:51:25.060Z,22.50
2019-05-03T10:52:25.757Z,22.50
2019-05-03T10:53:25.067Z,28.13
2019-05-03T10:54:25.074Z,22.50
2019-05-03T10:55:25.129Z,16.88
2019-05-03T10:56:26.803Z,16.88
2019-05-03T10:57:25.077Z,16.88
2019-05-03T10:58:25.105Z,16.88
2019-05-03T10:59:25.079Z,16.88
2019-05-03T11:00:42.466Z,16.88
2019-05-03T11:01:25.083Z,22.50
2019-05-03T11:02:25.392Z,22.50
2019-05-03T11:03:25.099Z,28.13
2019-05-03T11:04:25.090Z,28.13
2019-05-03T11:05:25.101Z,28.13
2019-05-03T11:06:25.478Z,39.38
2019-05-03T11:07:25.657Z,45.00
2019-05-03T11:08:25.102Z,56.25
2019-05-03T11:09:25.883Z,61.88
2019-05-03T11:10:25.333Z,56.25
2019-05-03T11:11:25.896Z,56.25
2019-05-03T11:12:25.472Z,56.25
2019-05-03T11:13:26.427Z,56.25
2019-05-03T11:14:25.495Z,56.25
2019-05-03T11:15:25.918Z,61.88
2019-05-03T11:16:25.521Z,61.88
2019-05-03T11:17:25.614Z,56.25
2019-05-03T11:18:25.311Z,50.63
2019-05-03T11:19:25.544Z,39.38
2019-05-03T11:20:29.066Z,39.38
2019-05-03T11:21:30.831Z,39.38
2019-05-03T11:22:25.346Z,39.38
2019-05-03T11:23:25.232Z,45.00
2019-05-03T11:24:27.167Z,50.63
2019-05-03T11:25:25.157Z,56.25
2019-05-03T11:26:25.337Z,56.25
2019-05-03T11:27:25.184Z,61.88
2019-05-03T11:28:25.165Z,67.50
2019-05-03T11:29:25.173Z,67.50
2019-05-03T11:30:25.172Z,67.50
2019-05-03T11:31:25.173Z,61.88
2019-05-03T11:32:25.516Z,50.63
2019-05-03T11:33:25.182Z,39.38
2019-05-03T11:34:25.407Z,28.13
2019-05-03T11:35:25.191Z,28.13
2019-05-03T11:36:25.357Z,28.13
2019-05-03T11:37:25.228Z,33.75
2019-05-03T11:38:25.450Z,39.38
2019-05-03T11:39:25.233Z,45.00
2019-05-03T11:40:25.292Z,50.63
2019-05-03T11:41:32.519Z,50.63
2019-05-03T11:42:25.211Z,50.63
2019-05-03T11:43:25.222Z,45.00
2019-05-03T11:44:25.217Z,45.00
2019-05-03T11:45:25.227Z,39.38
2019-05-03T11:46:25.227Z,39.38
2019-05-03T11:47:27.541Z,39.38
2019-05-03T11:48:25.398Z,39.38
2019-05-03T11:49:25.515Z,39.38
2019-05-03T11:50:25.480Z,33.75
2019-05-03T11:51:25.241Z,28.13
2019-05-03T11:52:25.867Z,22.50
2019-05-03T11:53:25.322Z,22.50
2019-05-03T11:54:25.249Z,22.50
2019-05-03T11:55:26.827Z,22.50
2019-05-03T11:56:25.256Z,22.50
2019-05-03T11:57:26.280Z,28.13
2019-05-03T11:58:26.971Z,33.75
2019-05-03T11:59:26.457Z,39.38
2019-05-03T12:00:25.358Z,33.75
2019-05-03T12:01:25.638Z,28.13
2019-05-03T12:02:25.277Z,28.13
2019-05-03T12:03:25.275Z,28.13
2019-05-03T12:04:25.276Z,28.13
2019-05-03T12:05:25.283Z,33.75
2019-05-03T12:06:25.283Z,39.38
2019-05-03T12:07:38.620Z,39.38
2019-05-03T12:08:25.371Z,45.00
2019-05-03T12:09:25.290Z,45.00
2019-05-03T12:10:37.256Z,50.63
2019-05-03T12:11:25.298Z,50.63
2019-05-03T12:12:25.301Z,45.00
2019-05-03T12:13:25.303Z,39.38
2019-05-03T12:14:25.307Z,39.38
2019-05-03T12:15:25.310Z,39.38
2019-05-03T12:17:06.833Z,45.00
2019-05-03T12:17:29.138Z,45.00
2019-05-03T12:18:26.038Z,45.00
2019-05-03T12:19:30.682Z,50.63
2019-05-03T12:20:28.647Z,50.63
2019-05-03T12:21:27.404Z,50.63
2019-05-03T12:22:26.083Z,50.63
2019-05-03T12:23:26.102Z,50.63
2019-05-03T12:24:26.722Z,56.25
2019-05-03T12:25:26.014Z,56.25
2019-05-03T12:26:30.044Z,56.25
2019-05-03T12:27:25.349Z,56.25
2019-05-03T12:28:25.685Z,56.25
2019-05-03T12:29:25.363Z,56.25
2019-05-03T12:30:27.684Z,50.63
2019-05-03T12:31:35.876Z,56.25
2019-05-03T12:32:25.369Z,56.25
2019-05-03T12:33:26.093Z,56.25
2019-05-03T12:34:25.681Z,56.25
2019-05-03T12:35:25.376Z,56.25
2019-05-03T12:36:25.375Z,56.25
2019-05-03T12:37:25.376Z,56.25
2019-05-03T12:38:25.653Z,56.25
2019-05-03T12:39:30.124Z,50.63
2019-05-03T12:40:25.611Z,50.63
2019-05-03T12:41:25.552Z,56.25
2019-05-03T12:42:25.654Z,56.25
2019-05-03T12:43:25.752Z,56.25
2019-05-03T12:44:25.398Z,56.25
2019-05-03T12:45:25.403Z,56.25
2019-05-03T12:46:26.182Z,56.25
2019-05-03T12:47:25.406Z,56.25
2019-05-03T12:48:25.409Z,56.25
2019-05-03T12:49:25.413Z,56.25
2019-05-03T12:50:25.427Z,50.63
2019-05-03T12:51:25.572Z,50.63
2019-05-03T12:52:26.792Z,50.63
2019-05-03T12:53:25.434Z,50.63
2019-05-03T12:54:25.432Z,50.63
2019-05-03T12:55:25.443Z,50.63
2019-05-03T12:56:32.313Z,45.00
2019-05-03T12:57:25.438Z,45.00
2019-05-03T12:58:25.459Z,39.38
2019-05-03T12:59:26.726Z,39.38
2019-05-03T13:00:25.451Z,39.38
2019-05-03T13:01:33.980Z,33.75
2019-05-03T13:02:25.458Z,33.75
2019-05-03T13:03:25.458Z,33.75
2019-05-03T13:04:25.469Z,39.38
2019-05-03T13:05:25.465Z,39.38
2019-05-03T13:06:25.541Z,39.38
2019-05-03T13:07:25.474Z,45.00
2019-05-03T13:08:25.472Z,50.63
2019-05-03T13:09:25.476Z,56.25
2019-05-03T13:10:26.568Z,61.88
2019-05-03T13:11:25.488Z,56.25
2019-05-03T13:12:25.484Z,56.25
2019-05-03T13:13:25.503Z,45.00
2019-05-03T13:14:25.495Z,33.75
2019-05-03T13:15:25.497Z,28.13
2019-05-03T13:16:25.502Z,22.50
2019-05-03T13:17:25.501Z,22.50
2019-05-03T13:18:25.505Z,22.50
2019-05-03T13:19:25.840Z,22.50
2019-05-03T13:20:25.527Z,22.50
2019-05-03T13:21:25.516Z,28.13
2019-05-03T13:22:25.523Z,28.13
2019-05-03T13:23:25.569Z,33.75
2019-05-03T13:24:26.035Z,39.38
2019-05-03T13:25:25.899Z,45.00
2019-05-03T13:26:25.551Z,50.63
2019-05-03T13:27:25.536Z,56.25
2019-05-03T13:28:25.539Z,56.25
2019-05-03T13:29:25.718Z,56.25
2019-05-03T13:30:25.551Z,56.25
2019-05-03T13:31:25.548Z,45.00
2019-05-03T13:32:25.553Z,39.38
2019-05-03T13:33:25.557Z,45.00
2019-05-03T13:34:25.563Z,45.00
2019-05-03T13:35:25.727Z,45.00
2019-05-03T13:36:25.566Z,45.00
2019-05-03T13:37:25.569Z,50.63